sensor_id;sensor_type;location;lat;lon;timestamp;P1;durP1;ratioP1;P2;durP2;ratioP2
26034;SDS011;13809;48.632;11.576;2023-06-22T00:03:59;5.37;;;4.17;;
26034;SDS011;13809;48.632;11.576;2023-06-22T00:09:03;4.93;;;4.53;;
26034;SDS011;13809;48.632;11.576;2023-06-22T00:14:08;5.20;;;4.70;;
26034;SDS011;13809;48.632;11.576;2023-06-22T00:19:11;5.37;;;4.53;;
26034;SDS011;13809;48.632;11.576;2023-06-22T00:24:15;4.87;;;4.47;;
26034;SDS011;13809;48.632;11.576;2023-06-22T00:29:19;6.67;;;4.90;;
26034;SDS011;13809;48.632;11.576;2023-06-22T00:34:25;5.57;;;5.00;;
26034;SDS011;13809;48.632;11.576;2023-06-22T00:39:29;5.57;;;5.00;;
26034;SDS011;13809;48.632;11.576;2023-06-22T00:44:34;5.57;;;5.07;;
26034;SDS011;13809;48.632;11.576;2023-06-22T00:49:38;5.20;;;4.70;;
26034;SDS011;13809;48.632;11.576;2023-06-22T00:54:42;5.13;;;4.63;;
26034;SDS011;13809;48.632;11.576;2023-06-22T00:59:47;6.67;;;4.70;;
26034;SDS011;13809;48.632;11.576;2023-06-22T01:04:51;6.20;;;5.53;;
26034;SDS011;13809;48.632;11.576;2023-06-22T01:09:59;6.27;;;4.83;;
26034;SDS011;13809;48.632;11.576;2023-06-22T01:15:10;5.23;;;4.73;;
26034;SDS011;13809;48.632;11.576;2023-06-22T01:20:17;5.93;;;5.23;;
26034;SDS011;13809;48.632;11.576;2023-06-22T01:25:26;5.17;;;4.67;;
26034;SDS011;13809;48.632;11.576;2023-06-22T01:30:40;7.03;;;4.63;;
26034;SDS011;13809;48.632;11.576;2023-06-22T01:35:44;6.97;;;4.80;;
26034;SDS011;13809;48.632;11.576;2023-06-22T01:40:47;5.20;;;4.77;;
26034;SDS011;13809;48.632;11.576;2023-06-22T01:45:53;5.97;;;4.80;;
26034;SDS011;13809;48.632;11.576;2023-06-22T01:50:57;5.77;;;4.57;;
26034;SDS011;13809;48.632;11.576;2023-06-22T01:56:00;5.73;;;4.37;;
26034;SDS011;13809;48.632;11.576;2023-06-22T02:01:08;5.20;;;4.80;;
26034;SDS011;13809;48.632;11.576;2023-06-22T02:06:14;4.23;;;3.83;;
26034;SDS011;13809;48.632;11.576;2023-06-22T02:11:24;4.77;;;4.10;;
26034;SDS011;13809;48.632;11.576;2023-06-22T02:16:32;6.13;;;5.10;;
26034;SDS011;13809;48.632;11.576;2023-06-22T02:21:35;7.40;;;4.90;;
26034;SDS011;13809;48.632;11.576;2023-06-22T02:26:39;5.63;;;4.77;;
26034;SDS011;13809;48.632;11.576;2023-06-22T02:31:45;5.53;;;4.93;;
26034;SDS011;13809;48.632;11.576;2023-06-22T02:36:48;5.37;;;4.87;;
26034;SDS011;13809;48.632;11.576;2023-06-22T02:41:53;5.20;;;4.70;;
26034;SDS011;13809;48.632;11.576;2023-06-22T02:46:58;6.03;;;4.43;;
26034;SDS011;13809;48.632;11.576;2023-06-22T02:52:01;4.97;;;4.47;;
26034;SDS011;13809;48.632;11.576;2023-06-22T02:57:05;5.23;;;4.73;;
26034;SDS011;13809;48.632;11.576;2023-06-22T03:02:09;5.87;;;5.23;;
26034;SDS011;13809;48.632;11.576;2023-06-22T03:07:13;8.27;;;5.53;;
26034;SDS011;13809;48.632;11.576;2023-06-22T03:12:16;5.83;;;5.20;;
26034;SDS011;13809;48.632;11.576;2023-06-22T03:17:21;6.50;;;5.77;;
26034;SDS011;13809;48.632;11.576;2023-06-22T03:22:24;5.93;;;5.43;;
26034;SDS011;13809;48.632;11.576;2023-06-22T03:27:27;6.20;;;5.60;;
26034;SDS011;13809;48.632;11.576;2023-06-22T03:32:31;5.77;;;4.57;;
26034;SDS011;13809;48.632;11.576;2023-06-22T03:37:35;5.43;;;4.93;;
26034;SDS011;13809;48.632;11.576;2023-06-22T03:42:38;5.60;;;5.10;;
26034;SDS011;13809;48.632;11.576;2023-06-22T03:47:42;4.93;;;4.43;;
26034;SDS011;13809;48.632;11.576;2023-06-22T03:52:46;6.60;;;5.00;;
26034;SDS011;13809;48.632;11.576;2023-06-22T03:57:49;5.43;;;4.93;;
26034;SDS011;13809;48.632;11.576;2023-06-22T04:02:55;4.50;;;4.10;;
26034;SDS011;13809;48.632;11.576;2023-06-22T04:07:59;5.33;;;4.83;;
26034;SDS011;13809;48.632;11.576;2023-06-22T04:13:02;5.53;;;5.03;;
26034;SDS011;13809;48.632;11.576;2023-06-22T04:18:06;6.17;;;5.57;;
26034;SDS011;13809;48.632;11.576;2023-06-22T04:23:10;5.20;;;4.70;;
26034;SDS011;13809;48.632;11.576;2023-06-22T04:28:13;6.57;;;5.37;;
26034;SDS011;13809;48.632;11.576;2023-06-22T04:33:17;5.87;;;5.40;;
26034;SDS011;13809;48.632;11.576;2023-06-22T04:38:21;5.47;;;4.80;;
26034;SDS011;13809;48.632;11.576;2023-06-22T04:43:24;5.67;;;5.17;;
26034;SDS011;13809;48.632;11.576;2023-06-22T04:48:33;7.00;;;6.37;;
26034;SDS011;13809;48.632;11.576;2023-06-22T04:53:36;8.73;;;7.57;;
26034;SDS011;13809;48.632;11.576;2023-06-22T04:58:42;7.73;;;7.00;;
26034;SDS011;13809;48.632;11.576;2023-06-22T05:03:47;7.80;;;7.07;;
26034;SDS011;13809;48.632;11.576;2023-06-22T05:08:51;8.33;;;7.63;;
26034;SDS011;13809;48.632;11.576;2023-06-22T05:13:58;8.60;;;7.43;;
26034;SDS011;13809;48.632;11.576;2023-06-22T05:19:03;9.30;;;8.33;;
26034;SDS011;13809;48.632;11.576;2023-06-22T05:24:06;9.43;;;8.43;;
26034;SDS011;13809;48.632;11.576;2023-06-22T05:29:10;9.40;;;8.50;;
26034;SDS011;13809;48.632;11.576;2023-06-22T05:34:14;9.93;;;8.80;;
26034;SDS011;13809;48.632;11.576;2023-06-22T05:39:17;10.30;;;9.33;;
26034;SDS011;13809;48.632;11.576;2023-06-22T05:44:21;9.90;;;9.00;;
26034;SDS011;13809;48.632;11.576;2023-06-22T05:49:25;10.20;;;9.30;;
26034;SDS011;13809;48.632;11.576;2023-06-22T05:54:31;10.10;;;9.20;;
26034;SDS011;13809;48.632;11.576;2023-06-22T05:59:34;12.07;;;9.53;;
26034;SDS011;13809;48.632;11.576;2023-06-22T06:04:39;10.03;;;9.13;;
26034;SDS011;13809;48.632;11.576;2023-06-22T06:09:42;9.60;;;8.80;;
26034;SDS011;13809;48.632;11.576;2023-06-22T06:14:45;9.57;;;8.63;;
26034;SDS011;13809;48.632;11.576;2023-06-22T06:19:50;9.90;;;8.70;;
26034;SDS011;13809;48.632;11.576;2023-06-22T06:24:54;8.93;;;8.13;;
26034;SDS011;13809;48.632;11.576;2023-06-22T06:29:57;8.07;;;7.13;;
26034;SDS011;13809;48.632;11.576;2023-06-22T06:35:01;6.93;;;6.23;;
26034;SDS011;13809;48.632;11.576;2023-06-22T06:40:05;5.73;;;4.57;;
26034;SDS011;13809;48.632;11.576;2023-06-22T06:45:10;4.90;;;4.17;;
26034;SDS011;13809;48.632;11.576;2023-06-22T06:50:16;4.40;;;4.00;;
26034;SDS011;13809;48.632;11.576;2023-06-22T06:55:19;3.90;;;3.50;;
26034;SDS011;13809;48.632;11.576;2023-06-22T07:00:25;4.23;;;3.83;;
26034;SDS011;13809;48.632;11.576;2023-06-22T07:05:30;6.50;;;3.87;;
26034;SDS011;13809;48.632;11.576;2023-06-22T07:10:34;4.13;;;3.40;;
26034;SDS011;13809;48.632;11.576;2023-06-22T07:15:37;3.50;;;3.20;;
26034;SDS011;13809;48.632;11.576;2023-06-22T07:20:42;3.93;;;3.27;;
26034;SDS011;13809;48.632;11.576;2023-06-22T07:25:45;3.23;;;2.83;;
26034;SDS011;13809;48.632;11.576;2023-06-22T07:30:48;3.23;;;2.93;;
26034;SDS011;13809;48.632;11.576;2023-06-22T07:35:54;5.17;;;2.97;;
26034;SDS011;13809;48.632;11.576;2023-06-22T07:40:57;4.47;;;3.03;;
26034;SDS011;13809;48.632;11.576;2023-06-22T07:46:00;3.10;;;2.80;;
26034;SDS011;13809;48.632;11.576;2023-06-22T07:51:05;4.00;;;3.07;;
26034;SDS011;13809;48.632;11.576;2023-06-22T07:56:09;3.73;;;3.07;;
26034;SDS011;13809;48.632;11.576;2023-06-22T08:01:13;5.17;;;3.33;;
26034;SDS011;13809;48.632;11.576;2023-06-22T08:06:19;5.77;;;3.10;;
26034;SDS011;13809;48.632;11.576;2023-06-22T08:11:22;4.50;;;3.20;;
26034;SDS011;13809;48.632;11.576;2023-06-22T08:16:26;7.30;;;3.20;;
26034;SDS011;13809;48.632;11.576;2023-06-22T08:21:31;6.97;;;3.47;;
26034;SDS011;13809;48.632;11.576;2023-06-22T08:26:34;3.60;;;3.23;;
26034;SDS011;13809;48.632;11.576;2023-06-22T08:31:38;3.57;;;3.20;;
26034;SDS011;13809;48.632;11.576;2023-06-22T08:36:43;4.63;;;3.33;;
26034;SDS011;13809;48.632;11.576;2023-06-22T08:41:53;4.83;;;3.33;;
26034;SDS011;13809;48.632;11.576;2023-06-22T08:46:57;6.07;;;3.43;;
26034;SDS011;13809;48.632;11.576;2023-06-22T08:52:01;5.00;;;3.60;;
26034;SDS011;13809;48.632;11.576;2023-06-22T08:57:05;3.80;;;3.40;;
26034;SDS011;13809;48.632;11.576;2023-06-22T09:02:08;3.73;;;3.43;;
26034;SDS011;13809;48.632;11.576;2023-06-22T09:07:14;4.93;;;3.67;;
26034;SDS011;13809;48.632;11.576;2023-06-22T09:12:23;4.67;;;3.50;;
26034;SDS011;13809;48.632;11.576;2023-06-22T09:17:28;3.90;;;3.43;;
26034;SDS011;13809;48.632;11.576;2023-06-22T09:22:33;4.77;;;3.67;;
26034;SDS011;13809;48.632;11.576;2023-06-22T09:27:36;3.97;;;3.47;;
26034;SDS011;13809;48.632;11.576;2023-06-22T09:32:40;6.37;;;3.70;;
26034;SDS011;13809;48.632;11.576;2023-06-22T09:37:45;5.47;;;3.70;;
26034;SDS011;13809;48.632;11.576;2023-06-22T09:42:48;5.87;;;3.90;;
26034;SDS011;13809;48.632;11.576;2023-06-22T09:47:51;4.67;;;3.60;;
26034;SDS011;13809;48.632;11.576;2023-06-22T09:52:56;7.67;;;3.97;;
26034;SDS011;13809;48.632;11.576;2023-06-22T09:57:59;5.10;;;3.67;;
26034;SDS011;13809;48.632;11.576;2023-06-22T10:03:02;7.03;;;4.07;;
26034;SDS011;13809;48.632;11.576;2023-06-22T10:08:07;4.67;;;3.73;;
26034;SDS011;13809;48.632;11.576;2023-06-22T10:13:11;5.90;;;3.80;;
26034;SDS011;13809;48.632;11.576;2023-06-22T10:18:14;4.27;;;3.73;;
26034;SDS011;13809;48.632;11.576;2023-06-22T10:23:19;4.10;;;3.80;;
26034;SDS011;13809;48.632;11.576;2023-06-22T10:28:23;4.97;;;3.90;;
26034;SDS011;13809;48.632;11.576;2023-06-22T10:33:26;6.87;;;4.13;;
26034;SDS011;13809;48.632;11.576;2023-06-22T10:38:30;7.03;;;3.83;;
26034;SDS011;13809;48.632;11.576;2023-06-22T10:43:33;4.57;;;3.80;;
26034;SDS011;13809;48.632;11.576;2023-06-22T10:48:37;4.80;;;4.27;;
26034;SDS011;13809;48.632;11.576;2023-06-22T10:53:41;4.23;;;3.80;;
26034;SDS011;13809;48.632;11.576;2023-06-22T10:58:45;4.53;;;3.57;;
26034;SDS011;13809;48.632;11.576;2023-06-22T11:03:48;4.07;;;3.67;;
26034;SDS011;13809;48.632;11.576;2023-06-22T11:08:53;6.57;;;4.00;;
26034;SDS011;13809;48.632;11.576;2023-06-22T11:14:07;6.07;;;4.07;;
26034;SDS011;13809;48.632;11.576;2023-06-22T11:19:10;6.37;;;4.40;;
26034;SDS011;13809;48.632;11.576;2023-06-22T11:24:15;4.53;;;3.87;;
26034;SDS011;13809;48.632;11.576;2023-06-22T11:29:19;6.23;;;4.00;;
26034;SDS011;13809;48.632;11.576;2023-06-22T11:34:37;8.17;;;3.60;;
26034;SDS011;13809;48.632;11.576;2023-06-22T11:39:42;6.13;;;4.27;;
26034;SDS011;13809;48.632;11.576;2023-06-22T11:44:54;6.97;;;3.90;;
26034;SDS011;13809;48.632;11.576;2023-06-22T11:49:59;4.80;;;3.97;;
26034;SDS011;13809;48.632;11.576;2023-06-22T11:55:04;6.50;;;3.80;;
26034;SDS011;13809;48.632;11.576;2023-06-22T12:00:08;6.97;;;3.83;;
26034;SDS011;13809;48.632;11.576;2023-06-22T12:05:19;5.90;;;4.10;;
26034;SDS011;13809;48.632;11.576;2023-06-22T12:10:25;5.27;;;3.77;;
26034;SDS011;13809;48.632;11.576;2023-06-22T12:15:30;4.70;;;4.23;;
26034;SDS011;13809;48.632;11.576;2023-06-22T12:20:33;7.10;;;4.37;;
26034;SDS011;13809;48.632;11.576;2023-06-22T12:25:38;5.90;;;4.33;;
26034;SDS011;13809;48.632;11.576;2023-06-22T12:30:41;5.03;;;4.13;;
26034;SDS011;13809;48.632;11.576;2023-06-22T12:35:45;6.87;;;5.00;;
26034;SDS011;13809;48.632;11.576;2023-06-22T12:40:51;5.00;;;4.20;;
26034;SDS011;13809;48.632;11.576;2023-06-22T12:45:55;5.57;;;3.90;;
26034;SDS011;13809;48.632;11.576;2023-06-22T12:50:58;6.73;;;4.20;;
26034;SDS011;13809;48.632;11.576;2023-06-22T12:56:03;6.77;;;4.23;;
26034;SDS011;13809;48.632;11.576;2023-06-22T13:01:06;6.27;;;4.37;;
26034;SDS011;13809;48.632;11.576;2023-06-22T13:06:09;7.47;;;4.57;;
26034;SDS011;13809;48.632;11.576;2023-06-22T13:11:14;7.23;;;4.63;;
26034;SDS011;13809;48.632;11.576;2023-06-22T13:16:17;5.13;;;4.20;;
26034;SDS011;13809;48.632;11.576;2023-06-22T13:21:20;6.43;;;4.60;;
26034;SDS011;13809;48.632;11.576;2023-06-22T13:26:25;6.00;;;4.73;;
26034;SDS011;13809;48.632;11.576;2023-06-22T13:31:30;6.00;;;4.23;;
26034;SDS011;13809;48.632;11.576;2023-06-22T13:36:33;7.57;;;3.83;;
26034;SDS011;13809;48.632;11.576;2023-06-22T13:41:37;4.70;;;4.20;;
26034;SDS011;13809;48.632;11.576;2023-06-22T13:46:41;6.07;;;4.37;;
26034;SDS011;13809;48.632;11.576;2023-06-22T13:51:44;6.27;;;4.53;;
26034;SDS011;13809;48.632;11.576;2023-06-22T13:56:50;5.87;;;4.60;;
26034;SDS011;13809;48.632;11.576;2023-06-22T14:01:53;10.80;;;4.50;;
26034;SDS011;13809;48.632;11.576;2023-06-22T14:06:57;5.90;;;4.43;;
26034;SDS011;13809;48.632;11.576;2023-06-22T14:12:04;9.10;;;5.30;;
26034;SDS011;13809;48.632;11.576;2023-06-22T14:17:07;6.03;;;4.30;;
26034;SDS011;13809;48.632;11.576;2023-06-22T14:22:11;6.90;;;4.53;;
26034;SDS011;13809;48.632;11.576;2023-06-22T14:27:15;9.80;;;4.40;;
26034;SDS011;13809;48.632;11.576;2023-06-22T14:32:19;9.93;;;4.60;;
26034;SDS011;13809;48.632;11.576;2023-06-22T14:37:22;7.50;;;4.73;;
26034;SDS011;13809;48.632;11.576;2023-06-22T14:42:27;5.63;;;4.57;;
26034;SDS011;13809;48.632;11.576;2023-06-22T14:47:31;10.30;;;4.90;;
26034;SDS011;13809;48.632;11.576;2023-06-22T14:52:34;7.50;;;4.70;;
26034;SDS011;13809;48.632;11.576;2023-06-22T14:57:39;5.20;;;4.67;;
26034;SDS011;13809;48.632;11.576;2023-06-22T15:02:42;40.60;;;11.53;;
26034;SDS011;13809;48.632;11.576;2023-06-22T15:07:45;6.67;;;4.87;;
26034;SDS011;13809;48.632;11.576;2023-06-22T15:12:50;6.00;;;4.33;;
26034;SDS011;13809;48.632;11.576;2023-06-22T15:17:53;6.27;;;4.83;;
26034;SDS011;13809;48.632;11.576;2023-06-22T15:22:56;6.10;;;4.20;;
26034;SDS011;13809;48.632;11.576;2023-06-22T15:28:01;6.30;;;4.77;;
26034;SDS011;13809;48.632;11.576;2023-06-22T15:33:05;8.17;;;4.63;;
26034;SDS011;13809;48.632;11.576;2023-06-22T15:38:08;9.67;;;5.00;;
26034;SDS011;13809;48.632;11.576;2023-06-22T15:43:13;7.03;;;4.90;;
26034;SDS011;13809;48.632;11.576;2023-06-22T15:48:16;8.43;;;5.03;;
26034;SDS011;13809;48.632;11.576;2023-06-22T15:53:19;8.17;;;5.07;;
26034;SDS011;13809;48.632;11.576;2023-06-22T15:58:24;8.00;;;4.47;;
26034;SDS011;13809;48.632;11.576;2023-06-22T16:03:27;6.70;;;4.83;;
26034;SDS011;13809;48.632;11.576;2023-06-22T16:08:30;8.67;;;5.07;;
26034;SDS011;13809;48.632;11.576;2023-06-22T16:13:36;7.10;;;4.67;;
26034;SDS011;13809;48.632;11.576;2023-06-22T16:18:40;8.00;;;4.47;;
26034;SDS011;13809;48.632;11.576;2023-06-22T16:23:43;5.33;;;4.73;;
26034;SDS011;13809;48.632;11.576;2023-06-22T16:28:48;6.17;;;4.40;;
26034;SDS011;13809;48.632;11.576;2023-06-22T16:33:51;5.87;;;4.63;;
26034;SDS011;13809;48.632;11.576;2023-06-22T16:38:54;7.57;;;4.50;;
26034;SDS011;13809;48.632;11.576;2023-06-22T16:43:59;7.10;;;4.57;;
26034;SDS011;13809;48.632;11.576;2023-06-22T16:49:06;5.37;;;4.30;;
26034;SDS011;13809;48.632;11.576;2023-06-22T16:54:09;6.37;;;4.87;;
26034;SDS011;13809;48.632;11.576;2023-06-22T16:59:15;7.17;;;4.70;;
26034;SDS011;13809;48.632;11.576;2023-06-22T17:04:18;6.67;;;5.00;;
26034;SDS011;13809;48.632;11.576;2023-06-22T17:09:25;6.93;;;4.80;;
26034;SDS011;13809;48.632;11.576;2023-06-22T17:14:31;6.73;;;4.77;;
26034;SDS011;13809;48.632;11.576;2023-06-22T17:19:34;6.10;;;5.00;;
26034;SDS011;13809;48.632;11.576;2023-06-22T17:24:39;7.83;;;5.13;;
26034;SDS011;13809;48.632;11.576;2023-06-22T17:29:44;5.87;;;4.60;;
26034;SDS011;13809;48.632;11.576;2023-06-22T17:34:47;6.67;;;4.90;;
26034;SDS011;13809;48.632;11.576;2023-06-22T17:39:56;8.87;;;4.80;;
26034;SDS011;13809;48.632;11.576;2023-06-22T17:45:01;8.50;;;5.30;;
26034;SDS011;13809;48.632;11.576;2023-06-22T17:50:05;6.90;;;4.87;;
26034;SDS011;13809;48.632;11.576;2023-06-22T17:55:09;5.93;;;5.27;;
26034;SDS011;13809;48.632;11.576;2023-06-22T18:00:14;8.43;;;5.17;;
26034;SDS011;13809;48.632;11.576;2023-06-22T18:05:27;10.13;;;5.47;;
26034;SDS011;13809;48.632;11.576;2023-06-22T18:10:32;6.40;;;4.93;;
26034;SDS011;13809;48.632;11.576;2023-06-22T18:15:38;10.97;;;5.33;;
26034;SDS011;13809;48.632;11.576;2023-06-22T18:20:42;6.97;;;4.97;;
26034;SDS011;13809;48.632;11.576;2023-06-22T18:25:47;9.97;;;5.53;;
26034;SDS011;13809;48.632;11.576;2023-06-22T18:30:52;8.60;;;5.50;;
26034;SDS011;13809;48.632;11.576;2023-06-22T18:35:57;7.10;;;5.23;;
26034;SDS011;13809;48.632;11.576;2023-06-22T18:41:02;8.83;;;5.20;;
26034;SDS011;13809;48.632;11.576;2023-06-22T18:51:46;10.43;;;5.50;;
26034;SDS011;13809;48.632;11.576;2023-06-22T18:56:53;7.77;;;5.43;;
26034;SDS011;13809;48.632;11.576;2023-06-22T19:02:01;7.73;;;5.47;;
26034;SDS011;13809;48.632;11.576;2023-06-22T19:07:04;11.20;;;5.73;;
26034;SDS011;13809;48.632;11.576;2023-06-22T19:12:18;8.53;;;6.20;;
26034;SDS011;13809;48.632;11.576;2023-06-22T19:17:24;7.57;;;5.67;;
26034;SDS011;13809;48.632;11.576;2023-06-22T19:22:42;7.77;;;4.83;;
26034;SDS011;13809;48.632;11.576;2023-06-22T19:27:50;9.20;;;4.97;;
26034;SDS011;13809;48.632;11.576;2023-06-22T19:32:57;6.00;;;4.33;;
26034;SDS011;13809;48.632;11.576;2023-06-22T19:38:01;6.90;;;4.33;;
26034;SDS011;13809;48.632;11.576;2023-06-22T19:43:05;7.67;;;4.10;;
26034;SDS011;13809;48.632;11.576;2023-06-22T19:48:10;7.07;;;4.47;;
26034;SDS011;13809;48.632;11.576;2023-06-22T19:53:14;8.30;;;4.57;;
26034;SDS011;13809;48.632;11.576;2023-06-22T19:58:18;7.07;;;3.93;;
26034;SDS011;13809;48.632;11.576;2023-06-22T20:03:27;6.10;;;4.60;;
26034;SDS011;13809;48.632;11.576;2023-06-22T20:08:31;9.40;;;4.93;;
26034;SDS011;13809;48.632;11.576;2023-06-22T20:13:46;7.23;;;4.70;;
26034;SDS011;13809;48.632;11.576;2023-06-22T20:19:04;8.33;;;4.10;;
26034;SDS011;13809;48.632;11.576;2023-06-22T20:24:08;8.80;;;4.53;;
26034;SDS011;13809;48.632;11.576;2023-06-22T20:29:22;11.23;;;5.27;;
26034;SDS011;13809;48.632;11.576;2023-06-22T20:34:28;5.80;;;3.97;;
26034;SDS011;13809;48.632;11.576;2023-06-22T20:39:35;8.03;;;3.80;;
26034;SDS011;13809;48.632;11.576;2023-06-22T20:44:39;9.47;;;4.17;;
26034;SDS011;13809;48.632;11.576;2023-06-22T20:49:44;6.20;;;3.80;;
26034;SDS011;13809;48.632;11.576;2023-06-22T20:54:47;6.10;;;3.70;;
26034;SDS011;13809;48.632;11.576;2023-06-22T20:59:50;6.20;;;3.60;;
26034;SDS011;13809;48.632;11.576;2023-06-22T21:04:55;6.57;;;3.30;;
26034;SDS011;13809;48.632;11.576;2023-06-22T21:09:58;7.83;;;3.60;;
26034;SDS011;13809;48.632;11.576;2023-06-22T21:15:01;5.40;;;3.33;;
26034;SDS011;13809;48.632;11.576;2023-06-22T21:20:08;7.30;;;3.47;;
26034;SDS011;13809;48.632;11.576;2023-06-22T21:25:13;4.53;;;3.33;;
26034;SDS011;13809;48.632;11.576;2023-06-22T21:30:17;7.00;;;4.10;;
26034;SDS011;13809;48.632;11.576;2023-06-22T21:35:22;7.83;;;3.80;;
26034;SDS011;13809;48.632;11.576;2023-06-22T21:40:25;7.53;;;3.83;;
26034;SDS011;13809;48.632;11.576;2023-06-22T21:45:28;8.23;;;4.37;;
26034;SDS011;13809;48.632;11.576;2023-06-22T21:50:34;6.50;;;3.93;;
26034;SDS011;13809;48.632;11.576;2023-06-22T21:55:37;7.03;;;4.23;;
26034;SDS011;13809;48.632;11.576;2023-06-22T22:00:40;11.00;;;4.30;;
26034;SDS011;13809;48.632;11.576;2023-06-22T22:05:45;6.77;;;3.80;;
26034;SDS011;13809;48.632;11.576;2023-06-22T22:10:49;6.20;;;3.70;;
26034;SDS011;13809;48.632;11.576;2023-06-22T22:15:52;7.47;;;3.63;;
26034;SDS011;13809;48.632;11.576;2023-06-22T22:20:57;6.87;;;4.00;;
26034;SDS011;13809;48.632;11.576;2023-06-22T22:26:00;6.80;;;3.70;;
26034;SDS011;13809;48.632;11.576;2023-06-22T22:31:03;7.37;;;4.00;;
26034;SDS011;13809;48.632;11.576;2023-06-22T22:36:08;5.20;;;3.80;;
26034;SDS011;13809;48.632;11.576;2023-06-22T22:41:11;6.53;;;4.07;;
26034;SDS011;13809;48.632;11.576;2023-06-22T22:46:14;6.60;;;3.50;;
26034;SDS011;13809;48.632;11.576;2023-06-22T22:51:19;5.00;;;3.40;;
26034;SDS011;13809;48.632;11.576;2023-06-22T22:56:23;4.47;;;3.70;;
26034;SDS011;13809;48.632;11.576;2023-06-22T23:01:28;5.43;;;3.83;;
26034;SDS011;13809;48.632;11.576;2023-06-22T23:06:32;4.10;;;3.70;;
26034;SDS011;13809;48.632;11.576;2023-06-22T23:11:38;7.70;;;3.90;;
26034;SDS011;13809;48.632;11.576;2023-06-22T23:16:41;5.37;;;3.87;;
26034;SDS011;13809;48.632;11.576;2023-06-22T23:21:46;5.30;;;3.90;;
26034;SDS011;13809;48.632;11.576;2023-06-22T23:26:50;5.37;;;3.97;;
26034;SDS011;13809;48.632;11.576;2023-06-22T23:31:53;4.30;;;3.90;;
26034;SDS011;13809;48.632;11.576;2023-06-22T23:36:58;5.90;;;3.77;;
26034;SDS011;13809;48.632;11.576;2023-06-22T23:42:01;4.33;;;3.93;;
26034;SDS011;13809;48.632;11.576;2023-06-22T23:47:06;7.97;;;3.67;;
26034;SDS011;13809;48.632;11.576;2023-06-22T23:52:10;6.50;;;4.23;;
26034;SDS011;13809;48.632;11.576;2023-06-22T23:57:14;5.13;;;4.10;;
